Iblea — IBFK — position and weather

sailwx.info

Track history (hours):
 
Tides and Currents Weather Stations Pressure Air Temp Water Temp Dewpoint Dewpoint Depression Visibility Wind Speed Wind Dir Waves Ship Positions

Iblea

Last reported at 2015-May-22 16:34 UTC. Time now 2015-May-22 17:34 UTC.
Position N 44°08' E 008°48'.

Length 176 m; draft 7.6 m.

Type: Ship (hazmat cat C). MMSI: 247087700.

Date/timePositionNaut miles runAvg speedWind from/ knotsBaromVisibWave heightAir tempDewpointWater temp
2015-May-22 16:34N 44°08' E 008°48'1 0.6
2015-May-22 15:34N 44°07' E 008°48'0 0.4
2015-May-22 14:33N 44°07' E 008°49'0 0.2
2015-May-22 13:33N 44°07' E 008°49'0 0.1
2015-May-22 12:33N 44°07' E 008°49'0 0.3
2015-May-22 11:33N 44°07' E 008°49'1 0.6
2015-May-22 10:33N 44°07' E 008°48'1 0.8
2015-May-22 09:34N 44°08' E 008°47'1 0.9
2015-May-22 08:34N 44°08' E 008°46'1 0.6
2015-May-22 07:33N 44°09' E 008°45'1 0.5
2015-May-22 06:34N 44°09' E 008°45'4 4.3
2015-May-22 05:34N 44°14' E 008°44'1211.9
2015-May-22 04:33N 44°25' E 008°49'1 1.0
2015-May-22 03:33N 44°25' E 008°50'0 0.0
2015-May-22 02:33N 44°25' E 008°50'0 0.0
2015-May-22 01:33N 44°25' E 008°50'0 0.0
2015-May-22 00:33N 44°25' E 008°50'0 0.0
2015-May-21 23:33N 44°25' E 008°50'0 0.0
2015-May-21 22:33N 44°25' E 008°50'0 0.0
2015-May-21 21:33N 44°25' E 008°50'0 0.0
2015-May-21 20:33N 44°25' E 008°50'0 0.0
2015-May-21 19:33N 44°25' E 008°50'0 0.0
2015-May-21 18:33N 44°25' E 008°50'0 0.0
2015-May-21 17:33N 44°25' E 008°50'0 0.0
2015-May-21 16:33N 44°25' E 008°50'0 0.0
2015-May-21 15:33N 44°25' E 008°50'0 0.0
2015-May-21 14:33N 44°25' E 008°50'0 0.0
2015-May-21 13:33N 44°25' E 008°50'0 0.0
2015-May-21 12:33N 44°25' E 008°50'0 0.0
2015-May-21 11:33N 44°25' E 008°50'0 0.0
2015-May-21 10:30N 44°25' E 008°50'0 0.0
2015-May-21 09:33N 44°25' E 008°50'0 0.0
2015-May-21 08:30N 44°25' E 008°50'0 0.0
2015-May-21 07:31N 44°25' E 008°50'0 0.0
2015-May-21 06:31N 44°25' E 008°50'0 0.0
2015-May-21 05:31N 44°25' E 008°50'0 0.0
2015-May-21 04:31N 44°25' E 008°50'0 0.0
2015-May-21 03:31N 44°25' E 008°50'0 0.0
2015-May-21 02:28N 44°25' E 008°50'0 0.0
2015-May-21 01:31N 44°25' E 008°50'0 0.0
2015-May-21 00:31N 44°25' E 008°50'0 0.0
2015-May-20 23:31N 44°25' E 008°50'0 0.0
2015-May-20 22:31N 44°25' E 008°50'0 0.0
2015-May-20 21:31N 44°25' E 008°50'0 0.0
2015-May-20 20:31N 44°25' E 008°50'0 0.0
2015-May-20 19:28N 44°25' E 008°50'0 0.0
2015-May-20 18:31N 44°25' E 008°50'0 0.0
2015-May-20 17:31N 44°25' E 008°50'0 0.0
2015-May-20 16:28N 44°25' E 008°50'0 0.0
2015-May-20 15:28N 44°25' E 008°50'0 0.0
2015-May-20 14:31N 44°25' E 008°50'0 0.0
2015-May-20 13:28N 44°25' E 008°50'0 0.0
2015-May-20 12:28N 44°25' E 008°50'0 0.0
2015-May-20 11:31N 44°25' E 008°50'0 0.0
2015-May-20 10:31N 44°25' E 008°50'1 0.9
2015-May-20 09:33N 44°25' E 008°49'9 8.7
2015-May-20 08:33N 44°17' E 008°45'4 4.5
2015-May-20 07:33N 44°13' E 008°43'1 0.6
2015-May-20 06:33N 44°12' E 008°44'4 3.9
2015-May-20 05:34N 44°16' E 008°46'1212.3
2015-May-20 04:34N 44°04' E 008°52'1211.7
2015-May-20 03:33N 43°53' E 008°58'10 9.6
2015-May-20 02:33N 43°45' E 009°04'1111.4
2015-May-20 01:34N 43°35' E 009°12'1211.6
2015-May-20 00:33N 43°25' E 009°21'1111.0
2015-May-19 23:34N 43°16' E 009°29'1111.0
2015-May-19 22:33N 43°06' E 009°36'1211.6
2015-May-19 21:33N 42°55' E 009°41'1311.2
2015-May-19 20:24N 42°43' E 009°46'1011.3
2015-May-19 19:31N 42°33' E 009°49'1311.3
2015-May-19 18:24N 42°22' E 009°56'1011.8
2015-May-19 17:32N 42°15' E 010°07'1111.4
2015-May-19 16:34N 42°09' E 010°19'2511.8
2015-May-19 14:28N 41°54' E 010°46'13 4.4
2015-May-19 11:32N 41°47' E 011°00'2611.7
2015-May-19 09:18N 41°31' E 011°28'911.7
2015-May-19 08:32N 41°26' E 011°38'1412.2
2015-May-19 07:24N 41°18' E 011°53'1011.9
2015-May-19 06:33N 41°12' E 012°04'1212.1
2015-May-19 05:32N 41°05' E 012°17'1311.8
2015-May-19 04:26N 40°57' E 012°31'1211.9
2015-May-19 03:28N 40°50' E 012°43'1112.0
2015-May-19 02:33N 40°42' E 012°52'1212.2
2015-May-19 01:34N 40°33' E 013°03'1212.3
2015-May-19 00:34N 40°23' E 013°14'1212.3
2015-May-18 23:33N 40°15' E 013°25'1312.6
2015-May-18 22:33N 40°05' E 013°36'1312.9
2015-May-18 21:34N 39°55' E 013°47'8 8.0
2015-May-18 20:34N 40°01' E 013°39'1211.6
2015-May-18 19:33N 40°10' E 013°29'7 7.4
2015-May-18 18:34N 40°05' E 013°36'1312.9
2015-May-18 17:33N 39°55' E 013°47'1312.9
2015-May-18 16:34N 39°45' E 013°58'1312.7
2015-May-18 15:34N 39°36' E 014°09'8612.2
2015-May-18 08:33N 38°26' E 015°14'1212.5
2015-May-18 07:33N 38°14' E 015°17'2 1.5
2015-May-18 06:29N 38°13' E 015°16'0 0.0
2015-May-18 05:29N 38°13' E 015°16'0 0.0
2015-May-18 04:29N 38°13' E 015°16'0 0.0
2015-May-18 03:29N 38°13' E 015°16'0 0.0
2015-May-18 02:29N 38°13' E 015°16'0 0.0
2015-May-18 01:29N 38°13' E 015°16'0 0.0
2015-May-18 00:29N 38°13' E 015°16'0 0.0
2015-May-17 23:29N 38°13' E 015°16'0 0.0
2015-May-17 22:29N 38°13' E 015°16'0 0.0
2015-May-17 21:29N 38°13' E 015°16'0 0.0
2015-May-17 20:29N 38°13' E 015°16'0 0.0
2015-May-17 19:29N 38°13' E 015°16'0 0.0
2015-May-17 18:29N 38°13' E 015°16'0 0.0
2015-May-17 17:29N 38°13' E 015°16'0 0.0
2015-May-17 16:23N 38°13' E 015°16'0 0.0
2015-May-17 15:29N 38°13' E 015°16'0 0.0
2015-May-17 14:29N 38°13' E 015°16'0 0.0
2015-May-17 13:29N 38°13' E 015°16'0 0.0
2015-May-17 12:29N 38°13' E 015°16'0 0.0
2015-May-17 09:29N 38°13' E 015°16'0 0.0
2015-May-17 08:05N 38°13' E 015°16'0 0.0
2015-May-17 07:17N 38°13' E 015°16'0 0.0
2015-May-17 06:29N 38°13' E 015°16'0 0.0
2015-May-17 05:29N 38°13' E 015°16'0 0.0
2015-May-17 04:26N 38°13' E 015°16'0 0.0
2015-May-17 03:32N 38°13' E 015°16'0 0.0
2015-May-17 02:32N 38°13' E 015°16'0 0.0
2015-May-17 01:32N 38°13' E 015°16'0 0.0
2015-May-17 00:32N 38°13' E 015°16'0 0.0
2015-May-16 23:32N 38°13' E 015°16'0 0.0
2015-May-16 22:32N 38°13' E 015°16'0 0.0
2015-May-16 21:32N 38°13' E 015°16'0 0.0
2015-May-16 20:32N 38°13' E 015°16'0 0.0
2015-May-16 19:32N 38°13' E 015°16'0 0.0
2015-May-16 18:32N 38°13' E 015°16'0 0.0
2015-May-16 16:32N 38°13' E 015°16'0 0.0
2015-May-16 15:32N 38°13' E 015°16'0 0.0
2015-May-16 14:32N 38°13' E 015°16'0 0.0
2015-May-16 13:32N 38°13' E 015°16'0 0.0
2015-May-16 12:32N 38°13' E 015°16'0 0.0
2015-May-16 11:32N 38°13' E 015°16'0 0.0
2015-May-16 10:32N 38°13' E 015°16'0 0.0
2015-May-16 08:29N 38°13' E 015°16'0 0.0
2015-May-16 07:23N 38°13' E 015°16'0 0.0
2015-May-16 06:29N 38°13' E 015°16'0 0.0
2015-May-16 05:29N 38°13' E 015°16'0 0.0
2015-May-16 04:29N 38°13' E 015°16'0 0.0
2015-May-16 03:29N 38°13' E 015°16'0 0.0
2015-May-16 02:29N 38°13' E 015°16'0 0.0
2015-May-16 01:29N 38°13' E 015°16'0 0.0
2015-May-16 00:29N 38°13' E 015°16'0 0.0
2015-May-15 23:29N 38°13' E 015°16'0 0.0
2015-May-15 22:29N 38°13' E 015°16'0 0.0
2015-May-15 21:29N 38°13' E 015°16'0 0.0
2015-May-15 20:29N 38°13' E 015°16'0 0.0
2015-May-15 19:29N 38°13' E 015°16'0 0.0
2015-May-15 18:29N 38°13' E 015°16'0 0.0
2015-May-15 17:29N 38°13' E 015°16'0 0.0
2015-May-15 16:29N 38°13' E 015°16'0 0.0
2015-May-15 15:29N 38°13' E 015°16'0 0.0
2015-May-15 14:33N 38°13' E 015°16'2 1.6
2015-May-15 13:30N 38°13' E 015°18'0 0.4
2015-May-15 12:33N 38°14' E 015°18'61 8.7
2015-May-15 05:33N 37°37' E 016°20'1312.6
2015-May-15 04:33N 37°32' E 016°35'1313.1
2015-May-15 03:33N 37°27' E 016°50'1413.6
2015-May-15 02:33N 37°22' E 017°06'1313.2
2015-May-15 01:33N 37°17' E 017°21'2612.9
2015-May-14 23:31N 37°07' E 017°51'1212.6
2015-May-14 22:33N 37°02' E 018°05'1312.6
2015-May-14 21:32N 36°58' E 018°21'14212.5
2015-May-14 10:09N 36°01' E 021°03'16412.9
2015-May-13 21:27N 34°59' E 024°10'  
Track history (hours):
 
Tides and Currents Weather Stations Pressure Air Temp Water Temp Dewpoint Dewpoint Depression Visibility Wind Speed Wind Dir Waves Ship Positions

Iblea

Last reported at 2015-May-22 16:34 UTC. Time now 2015-May-22 17:34 UTC.
Position N 44°08' E 008°48'.

Length 176 m; draft 7.6 m.

Type: Ship (hazmat cat C). MMSI: 247087700.

Date/timePositionNaut miles runAvg speedWind from/ knotsBaromVisibWave heightAir tempDewpointWater temp
2015-May-22 16:34N 44°08' E 008°48'1 0.6
2015-May-22 15:34N 44°07' E 008°48'0 0.4
2015-May-22 14:33N 44°07' E 008°49'0 0.2
2015-May-22 13:33N 44°07' E 008°49'0 0.1
2015-May-22 12:33N 44°07' E 008°49'0 0.3
2015-May-22 11:33N 44°07' E 008°49'1 0.6
2015-May-22 10:33N 44°07' E 008°48'1 0.8
2015-May-22 09:34N 44°08' E 008°47'1 0.9
2015-May-22 08:34N 44°08' E 008°46'1 0.6
2015-May-22 07:33N 44°09' E 008°45'1 0.5
2015-May-22 06:34N 44°09' E 008°45'4 4.3
2015-May-22 05:34N 44°14' E 008°44'1211.9
2015-May-22 04:33N 44°25' E 008°49'1 1.0
2015-May-22 03:33N 44°25' E 008°50'0 0.0
2015-May-22 02:33N 44°25' E 008°50'0 0.0
2015-May-22 01:33N 44°25' E 008°50'0 0.0
2015-May-22 00:33N 44°25' E 008°50'0 0.0
2015-May-21 23:33N 44°25' E 008°50'0 0.0
2015-May-21 22:33N 44°25' E 008°50'0 0.0
2015-May-21 21:33N 44°25' E 008°50'0 0.0
2015-May-21 20:33N 44°25' E 008°50'0 0.0
2015-May-21 19:33N 44°25' E 008°50'0 0.0
2015-May-21 18:33N 44°25' E 008°50'0 0.0
2015-May-21 17:33N 44°25' E 008°50'0 0.0
2015-May-21 16:33N 44°25' E 008°50'0 0.0
2015-May-21 15:33N 44°25' E 008°50'0 0.0
2015-May-21 14:33N 44°25' E 008°50'0 0.0
2015-May-21 13:33N 44°25' E 008°50'0 0.0
2015-May-21 12:33N 44°25' E 008°50'0 0.0
2015-May-21 11:33N 44°25' E 008°50'0 0.0
2015-May-21 10:30N 44°25' E 008°50'0 0.0
2015-May-21 09:33N 44°25' E 008°50'0 0.0
2015-May-21 08:30N 44°25' E 008°50'0 0.0
2015-May-21 07:31N 44°25' E 008°50'0 0.0
2015-May-21 06:31N 44°25' E 008°50'0 0.0
2015-May-21 05:31N 44°25' E 008°50'0 0.0
2015-May-21 04:31N 44°25' E 008°50'0 0.0
2015-May-21 03:31N 44°25' E 008°50'0 0.0
2015-May-21 02:28N 44°25' E 008°50'0 0.0
2015-May-21 01:31N 44°25' E 008°50'0 0.0
2015-May-21 00:31N 44°25' E 008°50'0 0.0
2015-May-20 23:31N 44°25' E 008°50'0 0.0
2015-May-20 22:31N 44°25' E 008°50'0 0.0
2015-May-20 21:31N 44°25' E 008°50'0 0.0
2015-May-20 20:31N 44°25' E 008°50'0 0.0
2015-May-20 19:28N 44°25' E 008°50'0 0.0
2015-May-20 18:31N 44°25' E 008°50'0 0.0
2015-May-20 17:31N 44°25' E 008°50'0 0.0
2015-May-20 16:28N 44°25' E 008°50'0 0.0
2015-May-20 15:28N 44°25' E 008°50'0 0.0
2015-May-20 14:31N 44°25' E 008°50'0 0.0
2015-May-20 13:28N 44°25' E 008°50'0 0.0
2015-May-20 12:28N 44°25' E 008°50'0 0.0
2015-May-20 11:31N 44°25' E 008°50'0 0.0
2015-May-20 10:31N 44°25' E 008°50'1 0.9
2015-May-20 09:33N 44°25' E 008°49'9 8.7
2015-May-20 08:33N 44°17' E 008°45'4 4.5
2015-May-20 07:33N 44°13' E 008°43'1 0.6
2015-May-20 06:33N 44°12' E 008°44'4 3.9
2015-May-20 05:34N 44°16' E 008°46'1212.3
2015-May-20 04:34N 44°04' E 008°52'1211.7
2015-May-20 03:33N 43°53' E 008°58'10 9.6
2015-May-20 02:33N 43°45' E 009°04'1111.4
2015-May-20 01:34N 43°35' E 009°12'1211.6
2015-May-20 00:33N 43°25' E 009°21'1111.0
2015-May-19 23:34N 43°16' E 009°29'1111.0
2015-May-19 22:33N 43°06' E 009°36'1211.6
2015-May-19 21:33N 42°55' E 009°41'1311.2
2015-May-19 20:24N 42°43' E 009°46'1011.3
2015-May-19 19:31N 42°33' E 009°49'1311.3
2015-May-19 18:24N 42°22' E 009°56'1011.8
2015-May-19 17:32N 42°15' E 010°07'1111.4
2015-May-19 16:34N 42°09' E 010°19'2511.8
2015-May-19 14:28N 41°54' E 010°46'13 4.4
2015-May-19 11:32N 41°47' E 011°00'2611.7
2015-May-19 09:18N 41°31' E 011°28'911.7
2015-May-19 08:32N 41°26' E 011°38'1412.2
2015-May-19 07:24N 41°18' E 011°53'1011.9
2015-May-19 06:33N 41°12' E 012°04'1212.1
2015-May-19 05:32N 41°05' E 012°17'1311.8
2015-May-19 04:26N 40°57' E 012°31'1211.9
2015-May-19 03:28N 40°50' E 012°43'1112.0
2015-May-19 02:33N 40°42' E 012°52'1212.2
2015-May-19 01:34N 40°33' E 013°03'1212.3
2015-May-19 00:34N 40°23' E 013°14'1212.3
2015-May-18 23:33N 40°15' E 013°25'1312.6
2015-May-18 22:33N 40°05' E 013°36'1312.9
2015-May-18 21:34N 39°55' E 013°47'8 8.0
2015-May-18 20:34N 40°01' E 013°39'1211.6
2015-May-18 19:33N 40°10' E 013°29'7 7.4
2015-May-18 18:34N 40°05' E 013°36'1312.9
2015-May-18 17:33N 39°55' E 013°47'1312.9
2015-May-18 16:34N 39°45' E 013°58'1312.7
2015-May-18 15:34N 39°36' E 014°09'8612.2
2015-May-18 08:33N 38°26' E 015°14'1212.5
2015-May-18 07:33N 38°14' E 015°17'2 1.5
2015-May-18 06:29N 38°13' E 015°16'0 0.0
2015-May-18 05:29N 38°13' E 015°16'0 0.0
2015-May-18 04:29N 38°13' E 015°16'0 0.0
2015-May-18 03:29N 38°13' E 015°16'0 0.0
2015-May-18 02:29N 38°13' E 015°16'0 0.0
2015-May-18 01:29N 38°13' E 015°16'0 0.0
2015-May-18 00:29N 38°13' E 015°16'0 0.0
2015-May-17 23:29N 38°13' E 015°16'0 0.0
2015-May-17 22:29N 38°13' E 015°16'0 0.0
2015-May-17 21:29N 38°13' E 015°16'0 0.0
2015-May-17 20:29N 38°13' E 015°16'0 0.0
2015-May-17 19:29N 38°13' E 015°16'0 0.0
2015-May-17 18:29N 38°13' E 015°16'0 0.0
2015-May-17 17:29N 38°13' E 015°16'0 0.0
2015-May-17 16:23N 38°13' E 015°16'0 0.0
2015-May-17 15:29N 38°13' E 015°16'0 0.0
2015-May-17 14:29N 38°13' E 015°16'0 0.0
2015-May-17 13:29N 38°13' E 015°16'0 0.0
2015-May-17 12:29N 38°13' E 015°16'0 0.0
2015-May-17 09:29N 38°13' E 015°16'0 0.0
2015-May-17 08:05N 38°13' E 015°16'0 0.0
2015-May-17 07:17N 38°13' E 015°16'0 0.0
2015-May-17 06:29N 38°13' E 015°16'0 0.0
2015-May-17 05:29N 38°13' E 015°16'0 0.0
2015-May-17 04:26N 38°13' E 015°16'0 0.0
2015-May-17 03:32N 38°13' E 015°16'0 0.0
2015-May-17 02:32N 38°13' E 015°16'0 0.0
2015-May-17 01:32N 38°13' E 015°16'0 0.0
2015-May-17 00:32N 38°13' E 015°16'0 0.0
2015-May-16 23:32N 38°13' E 015°16'0 0.0
2015-May-16 22:32N 38°13' E 015°16'0 0.0
2015-May-16 21:32N 38°13' E 015°16'0 0.0
2015-May-16 20:32N 38°13' E 015°16'0 0.0
2015-May-16 19:32N 38°13' E 015°16'0 0.0
2015-May-16 18:32N 38°13' E 015°16'0 0.0
2015-May-16 16:32N 38°13' E 015°16'0 0.0
2015-May-16 15:32N 38°13' E 015°16'0 0.0
2015-May-16 14:32N 38°13' E 015°16'0 0.0
2015-May-16 13:32N 38°13' E 015°16'0 0.0
2015-May-16 12:32N 38°13' E 015°16'0 0.0
2015-May-16 11:32N 38°13' E 015°16'0 0.0
2015-May-16 10:32N 38°13' E 015°16'0 0.0
2015-May-16 08:29N 38°13' E 015°16'0 0.0
2015-May-16 07:23N 38°13' E 015°16'0 0.0
2015-May-16 06:29N 38°13' E 015°16'0 0.0
2015-May-16 05:29N 38°13' E 015°16'0 0.0
2015-May-16 04:29N 38°13' E 015°16'0 0.0
2015-May-16 03:29N 38°13' E 015°16'0 0.0
2015-May-16 02:29N 38°13' E 015°16'0 0.0
2015-May-16 01:29N 38°13' E 015°16'0 0.0
2015-May-16 00:29N 38°13' E 015°16'0 0.0
2015-May-15 23:29N 38°13' E 015°16'0 0.0
2015-May-15 22:29N 38°13' E 015°16'0 0.0
2015-May-15 21:29N 38°13' E 015°16'0 0.0
2015-May-15 20:29N 38°13' E 015°16'0 0.0
2015-May-15 19:29N 38°13' E 015°16'0 0.0
2015-May-15 18:29N 38°13' E 015°16'0 0.0
2015-May-15 17:29N 38°13' E 015°16'0 0.0
2015-May-15 16:29N 38°13' E 015°16'0 0.0
2015-May-15 15:29N 38°13' E 015°16'0 0.0
2015-May-15 14:33N 38°13' E 015°16'2 1.6
2015-May-15 13:30N 38°13' E 015°18'0 0.4
2015-May-15 12:33N 38°14' E 015°18'61 8.7
2015-May-15 05:33N 37°37' E 016°20'1312.6
2015-May-15 04:33N 37°32' E 016°35'1313.1
2015-May-15 03:33N 37°27' E 016°50'1413.6
2015-May-15 02:33N 37°22' E 017°06'1313.2
2015-May-15 01:33N 37°17' E 017°21'2612.9
2015-May-14 23:31N 37°07' E 017°51'1212.6
2015-May-14 22:33N 37°02' E 018°05'1312.6
2015-May-14 21:32N 36°58' E 018°21'14212.5
2015-May-14 10:09N 36°01' E 021°03'16412.9
2015-May-13 21:27N 34°59' E 024°10'  

Dump ship's entire track history